createdAt,value
2023-05-07T00:00:01.085Z,10.5
2023-05-07T00:03:01.255Z,10.5
2023-05-07T00:06:01.041Z,10.5
2023-05-07T00:09:01.054Z,10.5
2023-05-07T00:12:01.014Z,10.5
2023-05-07T00:15:01.055Z,10.5
2023-05-07T00:18:01.067Z,10.5
2023-05-07T00:21:01.070Z,10.5
2023-05-07T00:24:00.982Z,10.5
2023-05-07T00:27:08.987Z,10.5
2023-05-07T00:30:00.968Z,10.5
2023-05-07T00:33:01.942Z,10.5
2023-05-07T00:36:01.095Z,10.5
2023-05-07T00:39:01.096Z,10.5
2023-05-07T00:42:01.844Z,10.5
2023-05-07T00:45:01.005Z,10
2023-05-07T00:48:01.243Z,10
2023-05-07T00:51:00.968Z,10
2023-05-07T00:54:01.079Z,10
2023-05-07T00:57:01.042Z,10
2023-05-07T01:00:01.078Z,10
2023-05-07T01:03:01.118Z,10
2023-05-07T01:06:01.022Z,10
2023-05-07T01:09:01.110Z,10
2023-05-07T01:12:01.004Z,10
2023-05-07T01:15:01.152Z,10
2023-05-07T01:18:01.223Z,10
2023-05-07T01:21:01.020Z,10
2023-05-07T01:24:01.065Z,10
2023-05-07T01:27:01.064Z,10
2023-05-07T01:30:01.412Z,10
2023-05-07T01:33:01.128Z,10
2023-05-07T01:36:01.077Z,10
2023-05-07T01:39:01.057Z,10
2023-05-07T01:42:01.688Z,10
2023-05-07T01:45:01.035Z,10
2023-05-07T01:48:01.164Z,10
2023-05-07T01:51:01.120Z,10
2023-05-07T01:54:02.316Z,10
2023-05-07T01:57:01.004Z,10
2023-05-07T02:00:01.174Z,10
2023-05-07T02:03:01.154Z,10
2023-05-07T02:06:01.016Z,10
2023-05-07T02:09:01.000Z,10
2023-05-07T02:12:01.048Z,10
2023-05-07T02:15:00.986Z,10
2023-05-07T02:18:01.504Z,10
2023-05-07T02:21:01.019Z,10
2023-05-07T02:24:00.987Z,10
2023-05-07T02:27:00.919Z,10
2023-05-07T02:30:01.013Z,10
2023-05-07T02:33:01.201Z,10
2023-05-07T02:36:00.991Z,10
2023-05-07T02:39:01.049Z,10
2023-05-07T02:42:01.065Z,10
2023-05-07T02:45:01.081Z,10
2023-05-07T02:48:01.187Z,10
2023-05-07T02:51:00.952Z,9.7
2023-05-07T02:54:01.217Z,9.7
2023-05-07T02:57:00.945Z,9.7
2023-05-07T03:00:01.085Z,9.7
2023-05-07T03:03:01.026Z,9.7
2023-05-07T03:06:01.117Z,9.7
2023-05-07T03:09:00.990Z,9.7
2023-05-07T03:12:01.004Z,9.7
2023-05-07T03:15:00.922Z,9.7
2023-05-07T03:18:01.177Z,9.7
2023-05-07T03:21:01.006Z,9.7
2023-05-07T03:24:01.016Z,9.7
2023-05-07T03:27:00.919Z,9.7
2023-05-07T03:30:01.073Z,9.7
2023-05-07T03:33:01.196Z,9.7
2023-05-07T03:36:00.926Z,9.7
2023-05-07T03:39:01.033Z,9.7
2023-05-07T03:42:00.957Z,9.7
2023-05-07T03:45:00.966Z,9.7
2023-05-07T03:48:01.063Z,9.7
2023-05-07T03:51:01.773Z,9.7
2023-05-07T03:54:01.081Z,9.7
2023-05-07T03:57:00.976Z,9.7
2023-05-07T04:00:01.221Z,9.7
2023-05-07T04:03:01.120Z,9.7
2023-05-07T04:06:00.958Z,9.7
2023-05-07T04:09:00.963Z,9.7
2023-05-07T04:12:01.047Z,9.7
2023-05-07T04:15:00.914Z,9.7
2023-05-07T04:18:01.081Z,9.7
2023-05-07T04:21:00.990Z,9.7
2023-05-07T04:24:00.931Z,9.7
2023-05-07T04:27:00.913Z,9.7
2023-05-07T04:30:00.980Z,9.7
2023-05-07T04:33:01.018Z,9.7
2023-05-07T04:36:00.953Z,9.7
2023-05-07T04:39:00.980Z,9.7
2023-05-07T04:42:00.988Z,9.7
2023-05-07T04:45:01.020Z,9.7
2023-05-07T04:48:00.977Z,9.7
2023-05-07T04:51:00.998Z,9.4
2023-05-07T04:54:00.997Z,9.4
2023-05-07T04:57:00.971Z,9.4
2023-05-07T05:00:01.070Z,9.4
2023-05-07T05:03:01.154Z,9.4
2023-05-07T05:06:00.964Z,9.4
2023-05-07T05:09:00.963Z,9.4
2023-05-07T05:12:00.986Z,9.6
2023-05-07T05:15:00.973Z,9.6
2023-05-07T05:18:01.096Z,9.6
2023-05-07T05:21:01.017Z,9.6
2023-05-07T05:24:01.105Z,9.6
2023-05-07T05:27:00.961Z,9.6
2023-05-07T05:30:01.375Z,9.6
2023-05-07T05:33:00.971Z,9.6
2023-05-07T05:36:00.992Z,9.6
2023-05-07T05:39:00.906Z,9.6
2023-05-07T05:42:00.956Z,9.6
2023-05-07T05:45:00.963Z,9.6
2023-05-07T05:48:01.032Z,9.6
2023-05-07T05:51:01.073Z,9.6
2023-05-07T05:54:00.962Z,9.6
2023-05-07T05:57:00.915Z,9.6
2023-05-07T06:00:01.101Z,9.6
2023-05-07T06:03:01.110Z,9.6
2023-05-07T06:06:00.982Z,9.8
2023-05-07T06:09:00.977Z,9.8
2023-05-07T06:12:01.274Z,9.8
2023-05-07T06:15:00.947Z,9.8
2023-05-07T06:18:01.017Z,9.8
2023-05-07T06:21:00.932Z,9.8
2023-05-07T06:24:01.038Z,9.8
2023-05-07T06:27:01.031Z,9.8
2023-05-07T06:30:00.968Z,9.8
2023-05-07T06:33:01.010Z,9.8
2023-05-07T06:36:00.954Z,9.8
2023-05-07T06:39:00.946Z,9.8
2023-05-07T06:42:00.972Z,9.8
2023-05-07T06:45:01.007Z,9.8
2023-05-07T06:48:01.044Z,9.8
2023-05-07T06:51:00.950Z,10.1
2023-05-07T06:54:00.967Z,10.1
2023-05-07T06:57:01.026Z,10.1
2023-05-07T07:00:01.744Z,10.1
2023-05-07T07:03:01.065Z,10.1
2023-05-07T07:06:00.976Z,10.1
2023-05-07T07:09:01.014Z,10.1
2023-05-07T07:12:00.990Z,10.1
2023-05-07T07:15:00.997Z,10.1
2023-05-07T07:18:01.027Z,10.1
2023-05-07T07:21:00.968Z,10.1
2023-05-07T07:24:00.938Z,10.1
2023-05-07T07:27:00.894Z,10.1
2023-05-07T07:30:01.123Z,10.1
2023-05-07T07:33:01.075Z,10.1
2023-05-07T07:36:00.964Z,10.1
2023-05-07T07:39:00.916Z,10.1
2023-05-07T07:42:01.039Z,10.1
2023-05-07T07:45:01.032Z,10.1
2023-05-07T07:48:01.085Z,10.1
2023-05-07T07:51:00.942Z,10.1
2023-05-07T07:54:00.967Z,10.1
2023-05-07T07:57:00.918Z,10.1
2023-05-07T08:00:01.159Z,10.1
2023-05-07T08:03:01.540Z,10.1
2023-05-07T08:06:00.925Z,10.1
2023-05-07T08:09:00.927Z,10.5
2023-05-07T08:12:00.955Z,10.5
2023-05-07T08:15:01.005Z,10.5
2023-05-07T08:18:01.090Z,10.5
2023-05-07T08:21:00.929Z,10.5
2023-05-07T08:24:00.978Z,10.5
2023-05-07T08:27:00.988Z,10.5
2023-05-07T08:30:01.021Z,10.7
2023-05-07T08:33:01.042Z,10.7
2023-05-07T08:36:01.089Z,10.7
2023-05-07T08:39:00.912Z,10.8
2023-05-07T08:42:01.019Z,10.8
2023-05-07T08:45:01.030Z,10.8
2023-05-07T08:48:00.977Z,10.8
2023-05-07T08:51:00.961Z,10.8
2023-05-07T08:54:00.989Z,10.8
2023-05-07T08:57:00.943Z,10.8
2023-05-07T09:00:01.057Z,10.8
2023-05-07T09:03:01.044Z,10.8
2023-05-07T09:06:00.990Z,10.8
2023-05-07T09:09:01.013Z,10.8
2023-05-07T09:12:00.974Z,10.8
2023-05-07T09:15:00.919Z,11.1
2023-05-07T09:18:01.070Z,11.1
2023-05-07T09:21:00.958Z,11.1
2023-05-07T09:24:00.925Z,11.1
2023-05-07T09:27:01.003Z,11.1
2023-05-07T09:30:01.003Z,11.1
2023-05-07T09:33:01.092Z,11.1
2023-05-07T09:36:01.036Z,11.1
2023-05-07T09:39:00.896Z,11.1
2023-05-07T09:42:01.029Z,11.1
2023-05-07T09:45:00.949Z,11.1
2023-05-07T09:48:01.088Z,11.1
2023-05-07T09:51:00.943Z,11.1
2023-05-07T09:54:01.032Z,11.1
2023-05-07T09:57:00.969Z,11.1
2023-05-07T10:00:01.024Z,11.1
2023-05-07T10:03:01.157Z,11.1
2023-05-07T10:06:00.994Z,11.1
2023-05-07T10:09:00.962Z,11.1
2023-05-07T10:12:00.908Z,11.1
2023-05-07T10:15:01.012Z,11.5
2023-05-07T10:18:01.096Z,11.5
2023-05-07T10:21:01.065Z,11.5
2023-05-07T10:24:00.915Z,11.5
2023-05-07T10:27:00.941Z,11.5
2023-05-07T10:30:00.954Z,11.5
2023-05-07T10:33:01.042Z,11.5
2023-05-07T10:36:00.949Z,11.7
2023-05-07T10:39:01.056Z,11.7
2023-05-07T10:42:01.014Z,11.8
2023-05-07T10:45:01.101Z,11.8
2023-05-07T10:48:01.128Z,11.8
2023-05-07T10:51:00.982Z,11.8
2023-05-07T10:54:01.056Z,11.8
2023-05-07T10:57:00.995Z,11.8
2023-05-07T11:00:01.097Z,11.8
2023-05-07T11:03:01.163Z,11.8
2023-05-07T11:06:01.119Z,11.8
2023-05-07T11:09:01.065Z,11.8
2023-05-07T11:12:00.954Z,11.8
2023-05-07T11:15:00.932Z,11.8
2023-05-07T11:18:01.033Z,11.8
2023-05-07T11:21:01.058Z,11.8
2023-05-07T11:24:01.058Z,11.8
2023-05-07T11:27:01.041Z,11.8
2023-05-07T11:30:01.064Z,11.8
2023-05-07T11:33:01.037Z,11.8
2023-05-07T11:36:00.982Z,11.8
2023-05-07T11:39:01.054Z,11.8
2023-05-07T11:42:01.004Z,11.8
2023-05-07T11:45:01.104Z,11.8
2023-05-07T11:48:00.942Z,11.8
2023-05-07T11:51:01.010Z,12.3
2023-05-07T11:54:01.022Z,12.3
2023-05-07T11:57:00.954Z,12.3
2023-05-07T12:00:00.978Z,12.3
2023-05-07T12:03:01.235Z,12.3
2023-05-07T12:06:00.996Z,12.3
2023-05-07T12:09:00.996Z,12.3
2023-05-07T12:12:00.924Z,12.3
2023-05-07T12:15:01.022Z,12.3
2023-05-07T12:18:01.097Z,12.3
2023-05-07T12:21:00.991Z,12.3
2023-05-07T12:24:01.003Z,12.3
2023-05-07T12:27:01.118Z,12.3
2023-05-07T12:30:01.081Z,12.3
2023-05-07T12:33:01.138Z,12.3
2023-05-07T12:36:01.049Z,12.3
2023-05-07T12:39:01.018Z,12.3
2023-05-07T12:42:01.027Z,12.3
2023-05-07T12:45:01.011Z,12.3
2023-05-07T12:48:01.111Z,12.3
2023-05-07T12:51:01.000Z,12.6
2023-05-07T12:54:01.148Z,12.6
2023-05-07T12:57:00.979Z,12.6
2023-05-07T13:00:01.216Z,12.6
2023-05-07T13:03:01.208Z,12.6
2023-05-07T13:06:01.188Z,12.6
2023-05-07T13:09:01.100Z,12.6
2023-05-07T13:12:01.175Z,12.6
2023-05-07T13:15:01.126Z,12.6
2023-05-07T13:18:01.307Z,12.6
2023-05-07T13:21:01.031Z,13.1
2023-05-07T13:24:01.093Z,13.1
2023-05-07T13:27:01.068Z,13.1
2023-05-07T13:30:01.121Z,13.1
2023-05-07T13:33:01.145Z,13.1
2023-05-07T13:36:01.020Z,13.1
2023-05-07T13:39:01.025Z,13.1
2023-05-07T13:42:01.036Z,13.1
2023-05-07T13:45:01.079Z,13.1
2023-05-07T13:48:01.164Z,13.3
2023-05-07T13:51:00.975Z,13.3
2023-05-07T13:54:01.003Z,13.3
2023-05-07T13:57:00.944Z,13.3
2023-05-07T14:00:01.153Z,13.3
2023-05-07T14:03:01.110Z,13.3
2023-05-07T14:06:01.161Z,13.3
2023-05-07T14:09:01.061Z,13.3
2023-05-07T14:12:01.119Z,13.3
2023-05-07T14:15:01.071Z,13.3
2023-05-07T14:18:01.144Z,13.3
2023-05-07T14:21:01.077Z,13.3
2023-05-07T14:24:01.029Z,13.3
2023-05-07T14:27:01.003Z,13.3
2023-05-07T14:30:01.038Z,13.3
2023-05-07T14:33:01.102Z,13.3
2023-05-07T14:36:00.988Z,13.3
2023-05-07T14:39:01.128Z,13.3
2023-05-07T14:42:00.976Z,13.3
2023-05-07T14:45:01.077Z,13.8
2023-05-07T14:48:01.094Z,13.8
2023-05-07T14:51:01.038Z,13.8
2023-05-07T14:54:00.976Z,13.8
2023-05-07T14:57:01.009Z,13.8
2023-05-07T15:00:01.263Z,13.8
2023-05-07T15:03:01.072Z,13.8
2023-05-07T15:06:01.070Z,13.8
2023-05-07T15:09:01.071Z,13.8
2023-05-07T15:12:01.143Z,13.8
2023-05-07T15:15:01.032Z,13.8
2023-05-07T15:18:01.170Z,13.9
2023-05-07T15:21:01.069Z,13.9
2023-05-07T15:24:01.057Z,13.9
2023-05-07T15:27:00.988Z,13.9
2023-05-07T15:30:01.159Z,13.9
2023-05-07T15:33:01.155Z,13.9
2023-05-07T15:36:01.026Z,13.9
2023-05-07T15:39:00.976Z,13.9
2023-05-07T15:42:01.030Z,13.9
2023-05-07T15:45:01.149Z,13.9
2023-05-07T15:48:01.087Z,13.9
2023-05-07T15:51:01.015Z,13.9
2023-05-07T15:54:01.058Z,13.9
2023-05-07T15:57:01.098Z,13.9
2023-05-07T16:00:01.155Z,13.9
2023-05-07T16:03:01.166Z,13.9
2023-05-07T16:06:01.146Z,13.9
2023-05-07T16:09:01.050Z,13.9
2023-05-07T16:12:00.982Z,13.9
2023-05-07T16:15:01.024Z,13.9
2023-05-07T16:18:01.213Z,13.9
2023-05-07T16:21:01.001Z,13.9
2023-05-07T16:24:01.060Z,13.9
2023-05-07T16:27:01.006Z,13.9
2023-05-07T16:30:01.051Z,13.9
2023-05-07T16:33:01.111Z,13.9
2023-05-07T16:36:01.002Z,13.9
2023-05-07T16:39:01.005Z,13.9
2023-05-07T16:42:01.047Z,13.4
2023-05-07T16:45:01.020Z,13.4
2023-05-07T16:48:01.154Z,13.4
2023-05-07T16:51:01.103Z,13.4
2023-05-07T16:54:01.014Z,13.4
2023-05-07T16:57:00.981Z,13.4
2023-05-07T17:00:01.211Z,13.4
2023-05-07T17:03:01.102Z,13.4
2023-05-07T17:06:01.272Z,13.4
2023-05-07T17:09:00.961Z,13.4
2023-05-07T17:12:01.028Z,13.4
2023-05-07T17:15:01.020Z,13.4
2023-05-07T17:18:01.081Z,13.4
2023-05-07T17:21:01.010Z,13.4
2023-05-07T17:24:01.128Z,13.4
2023-05-07T17:27:00.953Z,13.4
2023-05-07T17:30:01.146Z,13.4
2023-05-07T17:33:19.854Z,13.4
2023-05-07T17:36:01.053Z,13.4
2023-05-07T17:39:00.990Z,13.4
2023-05-07T17:42:01.077Z,13.4
2023-05-07T17:45:01.024Z,13.4
2023-05-07T17:48:01.084Z,13.4
2023-05-07T17:51:00.982Z,13.4
2023-05-07T17:54:01.080Z,13.4
2023-05-07T17:57:01.276Z,13.4
2023-05-07T18:00:01.015Z,12.8
2023-05-07T18:03:01.167Z,12.8
2023-05-07T18:06:01.009Z,12.8
2023-05-07T18:09:00.966Z,12.8
2023-05-07T18:12:01.124Z,12.8
2023-05-07T18:15:01.053Z,12.8
2023-05-07T18:18:01.124Z,12.8
2023-05-07T18:21:01.038Z,12.8
2023-05-07T18:24:01.065Z,12.8
2023-05-07T18:27:01.021Z,12.8
2023-05-07T18:30:01.083Z,12.8
2023-05-07T18:33:01.169Z,12.8
2023-05-07T18:36:01.051Z,12.8
2023-05-07T18:39:01.013Z,12.5
2023-05-07T18:42:01.054Z,12.5
2023-05-07T18:45:01.012Z,12.5
2023-05-07T18:48:01.180Z,12.5
2023-05-07T18:51:01.005Z,12.5
2023-05-07T18:54:01.025Z,12.5
2023-05-07T18:57:00.941Z,12.5
2023-05-07T19:00:00.995Z,12.5
2023-05-07T19:03:01.069Z,12
2023-05-07T19:06:01.044Z,12
2023-05-07T19:09:01.046Z,12
2023-05-07T19:12:01.102Z,12
2023-05-07T19:15:01.025Z,12
2023-05-07T19:18:01.277Z,11.5
2023-05-07T19:21:01.035Z,11.5
2023-05-07T19:24:01.046Z,11.5
2023-05-07T19:27:01.024Z,11.5
2023-05-07T19:30:01.080Z,11.5
2023-05-07T19:33:01.119Z,11.5
2023-05-07T19:36:01.078Z,11.5
2023-05-07T19:39:01.004Z,11.5
2023-05-07T19:42:01.107Z,11.5
2023-05-07T19:45:01.021Z,10.9
2023-05-07T19:48:01.045Z,10.9
2023-05-07T19:51:00.946Z,10.9
2023-05-07T19:54:00.987Z,10.9
2023-05-07T19:57:01.027Z,10.9
2023-05-07T20:00:01.055Z,10.9
2023-05-07T20:03:01.232Z,10.9
2023-05-07T20:06:01.112Z,10.9
2023-05-07T20:09:01.144Z,10.7
2023-05-07T20:12:01.048Z,10.7
2023-05-07T20:15:00.994Z,10.7
2023-05-07T20:18:01.115Z,10.7
2023-05-07T20:21:01.023Z,10.7
2023-05-07T20:24:01.021Z,10.7
2023-05-07T20:27:01.010Z,10.7
2023-05-07T20:30:01.158Z,10.7
2023-05-07T20:33:01.240Z,10.7
2023-05-07T20:36:01.048Z,10.7
2023-05-07T20:39:01.027Z,10.2
2023-05-07T20:42:01.186Z,10.2
2023-05-07T20:45:03.871Z,10.2
2023-05-07T20:48:01.279Z,10.2
2023-05-07T20:51:01.058Z,10.2
2023-05-07T20:54:01.210Z,10.2
2023-05-07T20:57:01.014Z,10.2
2023-05-07T21:00:01.026Z,10.2
2023-05-07T21:03:01.192Z,10.2
2023-05-07T21:06:01.016Z,10.2
2023-05-07T21:09:01.210Z,10.2
2023-05-07T21:12:01.045Z,10.2
2023-05-07T21:15:01.223Z,10.2
2023-05-07T21:18:01.738Z,10.2
2023-05-07T21:21:00.972Z,10.2
2023-05-07T21:24:01.034Z,10.2
2023-05-07T21:27:01.077Z,10.2
2023-05-07T21:30:01.025Z,10.2
2023-05-07T21:33:01.136Z,10.2
2023-05-07T21:36:01.018Z,10.2
2023-05-07T21:39:01.143Z,10.2
2023-05-07T21:42:01.042Z,10.2
2023-05-07T21:45:00.958Z,10.2
2023-05-07T21:48:01.143Z,10.2
2023-05-07T21:51:01.026Z,9.7
2023-05-07T21:54:01.003Z,9.7
2023-05-07T21:57:01.046Z,9.7
2023-05-07T22:00:01.608Z,9.7
2023-05-07T22:03:01.579Z,9.7
2023-05-07T22:06:01.065Z,9.7
2023-05-07T22:09:01.043Z,9.7
2023-05-07T22:12:00.976Z,9.7
2023-05-07T22:15:00.975Z,9.7
2023-05-07T22:18:01.097Z,9.7
2023-05-07T22:21:01.073Z,9.7
2023-05-07T22:24:01.059Z,9.7
2023-05-07T22:27:00.995Z,9.7
2023-05-07T22:30:01.128Z,9.7
2023-05-07T22:33:01.103Z,9.7
2023-05-07T22:36:00.989Z,9.7
2023-05-07T22:39:00.982Z,9.7
2023-05-07T22:42:01.018Z,9.7
2023-05-07T22:45:01.038Z,9.7
2023-05-07T22:48:01.103Z,9.7
2023-05-07T22:51:01.017Z,9.7
2023-05-07T22:54:01.092Z,9.7
2023-05-07T22:57:01.044Z,9.7
2023-05-07T23:00:01.097Z,9.7
2023-05-07T23:03:01.291Z,9.7
2023-05-07T23:06:00.995Z,9.7
2023-05-07T23:09:00.998Z,9.7
2023-05-07T23:12:01.119Z,9.7
2023-05-07T23:15:01.010Z,9.7
2023-05-07T23:18:01.127Z,9.7
2023-05-07T23:21:01.081Z,9.7
2023-05-07T23:24:01.087Z,9.7
2023-05-07T23:27:01.050Z,9.7
2023-05-07T23:30:01.154Z,9.7
2023-05-07T23:33:01.093Z,9.7
2023-05-07T23:36:01.028Z,9.7
2023-05-07T23:39:01.003Z,9.7
2023-05-07T23:42:00.987Z,9.7
2023-05-07T23:45:01.055Z,9.7
2023-05-07T23:48:01.160Z,9.1
2023-05-07T23:51:00.949Z,9.1
2023-05-07T23:54:01.034Z,9.1
2023-05-07T23:57:01.193Z,9.1
